sensor_id;sensor_type;location;lat;lon;timestamp;P1;durP1;ratioP1;P2;durP2;ratioP2
48873;SDS011;66155;46.204;5.220;2023-03-23T00:02:32;5.43;;;3.47;;
48873;SDS011;66155;46.204;5.220;2023-03-23T00:07:35;9.00;;;4.00;;
48873;SDS011;66155;46.204;5.220;2023-03-23T00:12:35;3.55;;;3.17;;
48873;SDS011;66155;46.204;5.220;2023-03-23T00:17:36;7.82;;;3.38;;
48873;SDS011;66155;46.204;5.220;2023-03-23T00:22:36;4.67;;;3.27;;
48873;SDS011;66155;46.204;5.220;2023-03-23T00:27:37;5.03;;;3.65;;
48873;SDS011;66155;46.204;5.220;2023-03-23T00:32:38;4.25;;;2.92;;
48873;SDS011;66155;46.204;5.220;2023-03-23T00:37:38;3.22;;;2.70;;
48873;SDS011;66155;46.204;5.220;2023-03-23T00:42:39;4.47;;;3.30;;
48873;SDS011;66155;46.204;5.220;2023-03-23T00:47:39;3.85;;;2.95;;
48873;SDS011;66155;46.204;5.220;2023-03-23T00:52:41;3.17;;;2.88;;
48873;SDS011;66155;46.204;5.220;2023-03-23T00:57:42;3.13;;;2.80;;
48873;SDS011;66155;46.204;5.220;2023-03-23T01:02:42;3.17;;;2.80;;
48873;SDS011;66155;46.204;5.220;2023-03-23T01:07:44;3.30;;;2.60;;
48873;SDS011;66155;46.204;5.220;2023-03-23T01:12:45;3.70;;;3.40;;
48873;SDS011;66155;46.204;5.220;2023-03-23T01:17:46;4.32;;;2.90;;
48873;SDS011;66155;46.204;5.220;2023-03-23T01:22:47;6.13;;;3.28;;
48873;SDS011;66155;46.204;5.220;2023-03-23T01:27:47;4.40;;;3.17;;
48873;SDS011;66155;46.204;5.220;2023-03-23T01:32:49;3.20;;;2.90;;
48873;SDS011;66155;46.204;5.220;2023-03-23T01:37:50;4.43;;;2.83;;
48873;SDS011;66155;46.204;5.220;2023-03-23T01:42:51;5.90;;;4.00;;
48873;SDS011;66155;46.204;5.220;2023-03-23T01:47:52;3.80;;;2.80;;
48873;SDS011;66155;46.204;5.220;2023-03-23T01:52:58;3.22;;;2.92;;
48873;SDS011;66155;46.204;5.220;2023-03-23T01:58:01;4.80;;;3.70;;
48873;SDS011;66155;46.204;5.220;2023-03-23T02:03:02;3.92;;;2.70;;
48873;SDS011;66155;46.204;5.220;2023-03-23T02:08:03;4.47;;;2.30;;
48873;SDS011;66155;46.204;5.220;2023-03-23T02:13:06;4.68;;;2.78;;
48873;SDS011;66155;46.204;5.220;2023-03-23T02:18:18;2.42;;;2.22;;
48873;SDS011;66155;46.204;5.220;2023-03-23T02:23:53;2.92;;;2.72;;
48873;SDS011;66155;46.204;5.220;2023-03-23T02:29:25;2.65;;;2.30;;
48873;SDS011;66155;46.204;5.220;2023-03-23T02:45:31;2.50;;;2.30;;
48873;SDS011;66155;46.204;5.220;2023-03-23T02:50:36;5.72;;;2.33;;
48873;SDS011;66155;46.204;5.220;2023-03-23T02:55:39;2.22;;;1.95;;
48873;SDS011;66155;46.204;5.220;2023-03-23T03:00:42;3.03;;;2.25;;
48873;SDS011;66155;46.204;5.220;2023-03-23T03:05:56;3.72;;;2.33;;
48873;SDS011;66155;46.204;5.220;2023-03-23T03:11:14;4.53;;;2.30;;
48873;SDS011;66155;46.204;5.220;2023-03-23T03:21:42;3.03;;;2.10;;
48873;SDS011;66155;46.204;5.220;2023-03-23T03:26:46;2.97;;;2.78;;
48873;SDS011;66155;46.204;5.220;2023-03-23T03:31:49;2.20;;;1.77;;
48873;SDS011;66155;46.204;5.220;2023-03-23T03:36:52;2.95;;;2.30;;
48873;SDS011;66155;46.204;5.220;2023-03-23T03:41:58;3.28;;;3.03;;
48873;SDS011;66155;46.204;5.220;2023-03-23T03:46:59;5.95;;;2.00;;
48873;SDS011;66155;46.204;5.220;2023-03-23T03:51:59;2.42;;;2.13;;
48873;SDS011;66155;46.204;5.220;2023-03-23T03:57:00;2.20;;;2.00;;
48873;SDS011;66155;46.204;5.220;2023-03-23T04:02:01;4.85;;;2.70;;
48873;SDS011;66155;46.204;5.220;2023-03-23T04:07:02;2.55;;;2.30;;
48873;SDS011;66155;46.204;5.220;2023-03-23T04:12:03;2.58;;;2.38;;
48873;SDS011;66155;46.204;5.220;2023-03-23T04:17:03;4.18;;;2.00;;
48873;SDS011;66155;46.204;5.220;2023-03-23T04:22:04;2.42;;;2.22;;
48873;SDS011;66155;46.204;5.220;2023-03-23T04:27:05;2.72;;;2.53;;
48873;SDS011;66155;46.204;5.220;2023-03-23T04:32:05;2.35;;;2.15;;
48873;SDS011;66155;46.204;5.220;2023-03-23T04:37:06;3.28;;;2.58;;
48873;SDS011;66155;46.204;5.220;2023-03-23T04:42:08;3.13;;;2.58;;
48873;SDS011;66155;46.204;5.220;2023-03-23T04:47:09;2.35;;;2.15;;
48873;SDS011;66155;46.204;5.220;2023-03-23T04:52:09;2.72;;;1.90;;
48873;SDS011;66155;46.204;5.220;2023-03-23T04:57:10;4.75;;;2.70;;
48873;SDS011;66155;46.204;5.220;2023-03-23T05:02:12;3.25;;;2.15;;
48873;SDS011;66155;46.204;5.220;2023-03-23T05:07:14;2.60;;;2.40;;
48873;SDS011;66155;46.204;5.220;2023-03-23T05:12:15;3.03;;;2.53;;
48873;SDS011;66155;46.204;5.220;2023-03-23T05:17:16;3.72;;;3.03;;
48873;SDS011;66155;46.204;5.220;2023-03-23T05:22:17;2.60;;;2.40;;
48873;SDS011;66155;46.204;5.220;2023-03-23T05:27:18;3.10;;;2.78;;
48873;SDS011;66155;46.204;5.220;2023-03-23T05:32:19;2.80;;;2.60;;
48873;SDS011;66155;46.204;5.220;2023-03-23T05:37:19;3.47;;;3.20;;
48873;SDS011;66155;46.204;5.220;2023-03-23T05:42:20;3.00;;;2.80;;
48873;SDS011;66155;46.204;5.220;2023-03-23T05:47:22;3.60;;;3.30;;
48873;SDS011;66155;46.204;5.220;2023-03-23T05:52:22;3.45;;;2.92;;
48873;SDS011;66155;46.204;5.220;2023-03-23T05:57:26;3.10;;;2.90;;
48873;SDS011;66155;46.204;5.220;2023-03-23T06:02:27;3.25;;;2.70;;
48873;SDS011;66155;46.204;5.220;2023-03-23T06:07:29;3.25;;;2.95;;
48873;SDS011;66155;46.204;5.220;2023-03-23T06:12:30;3.47;;;2.75;;
48873;SDS011;66155;46.204;5.220;2023-03-23T06:17:31;3.05;;;2.85;;
48873;SDS011;66155;46.204;5.220;2023-03-23T06:22:32;3.00;;;2.80;;
48873;SDS011;66155;46.204;5.220;2023-03-23T06:27:33;3.10;;;2.22;;
48873;SDS011;66155;46.204;5.220;2023-03-23T06:32:35;3.00;;;2.70;;
48873;SDS011;66155;46.204;5.220;2023-03-23T06:37:36;3.35;;;3.05;;
48873;SDS011;66155;46.204;5.220;2023-03-23T06:42:37;3.38;;;2.83;;
48873;SDS011;66155;46.204;5.220;2023-03-23T06:47:38;3.40;;;3.10;;
48873;SDS011;66155;46.204;5.220;2023-03-23T06:52:39;4.75;;;3.80;;
48873;SDS011;66155;46.204;5.220;2023-03-23T06:57:40;4.90;;;3.23;;
48873;SDS011;66155;46.204;5.220;2023-03-23T07:02:41;4.75;;;3.15;;
48873;SDS011;66155;46.204;5.220;2023-03-23T07:07:42;3.22;;;3.00;;
48873;SDS011;66155;46.204;5.220;2023-03-23T07:12:43;3.55;;;2.55;;
48873;SDS011;66155;46.204;5.220;2023-03-23T07:17:43;3.33;;;2.90;;
48873;SDS011;66155;46.204;5.220;2023-03-23T07:22:45;5.68;;;3.25;;
48873;SDS011;66155;46.204;5.220;2023-03-23T07:27:45;9.43;;;5.85;;
48873;SDS011;66155;46.204;5.220;2023-03-23T07:32:46;4.55;;;2.83;;
48873;SDS011;66155;46.204;5.220;2023-03-23T07:37:47;3.30;;;3.00;;
48873;SDS011;66155;46.204;5.220;2023-03-23T07:42:56;3.40;;;3.10;;
48873;SDS011;66155;46.204;5.220;2023-03-23T07:47:57;4.80;;;3.15;;
48873;SDS011;66155;46.204;5.220;2023-03-23T07:52:57;3.53;;;2.90;;
48873;SDS011;66155;46.204;5.220;2023-03-23T07:57:58;3.55;;;3.25;;
48873;SDS011;66155;46.204;5.220;2023-03-23T08:02:59;3.45;;;2.75;;
48873;SDS011;66155;46.204;5.220;2023-03-23T08:08:00;4.03;;;3.03;;
48873;SDS011;66155;46.204;5.220;2023-03-23T08:13:01;3.42;;;3.13;;
48873;SDS011;66155;46.204;5.220;2023-03-23T08:18:02;4.38;;;2.80;;
48873;SDS011;66155;46.204;5.220;2023-03-23T08:23:03;4.18;;;2.90;;
48873;SDS011;66155;46.204;5.220;2023-03-23T08:28:04;3.42;;;3.00;;
48873;SDS011;66155;46.204;5.220;2023-03-23T08:33:04;3.13;;;2.70;;
48873;SDS011;66155;46.204;5.220;2023-03-23T08:38:06;7.78;;;3.78;;
48873;SDS011;66155;46.204;5.220;2023-03-23T08:43:06;3.50;;;3.30;;
48873;SDS011;66155;46.204;5.220;2023-03-23T08:48:07;3.92;;;3.47;;
48873;SDS011;66155;46.204;5.220;2023-03-23T08:53:07;4.72;;;3.00;;
48873;SDS011;66155;46.204;5.220;2023-03-23T08:58:08;3.58;;;3.28;;
48873;SDS011;66155;46.204;5.220;2023-03-23T09:03:08;4.35;;;3.78;;
48873;SDS011;66155;46.204;5.220;2023-03-23T09:08:09;4.35;;;2.80;;
48873;SDS011;66155;46.204;5.220;2023-03-23T09:13:10;5.45;;;3.13;;
48873;SDS011;66155;46.204;5.220;2023-03-23T09:18:10;4.95;;;3.38;;
48873;SDS011;66155;46.204;5.220;2023-03-23T09:23:11;4.85;;;3.80;;
48873;SDS011;66155;46.204;5.220;2023-03-23T09:28:13;3.45;;;2.80;;
48873;SDS011;66155;46.204;5.220;2023-03-23T09:33:14;3.72;;;3.22;;
48873;SDS011;66155;46.204;5.220;2023-03-23T09:38:14;3.75;;;3.38;;
48873;SDS011;66155;46.204;5.220;2023-03-23T09:48:55;3.80;;;3.05;;
48873;SDS011;66155;46.204;5.220;2023-03-23T09:54:01;3.72;;;2.70;;
48873;SDS011;66155;46.204;5.220;2023-03-23T10:04:37;4.40;;;2.97;;
48873;SDS011;66155;46.204;5.220;2023-03-23T10:09:42;3.60;;;2.92;;
48873;SDS011;66155;46.204;5.220;2023-03-23T10:14:54;4.05;;;3.03;;
48873;SDS011;66155;46.204;5.220;2023-03-23T10:25:34;4.25;;;3.30;;
48873;SDS011;66155;46.204;5.220;2023-03-23T10:30:38;3.83;;;3.10;;
48873;SDS011;66155;46.204;5.220;2023-03-23T10:36:01;5.05;;;3.15;;
48873;SDS011;66155;46.204;5.220;2023-03-23T10:41:06;14.35;;;4.60;;
48873;SDS011;66155;46.204;5.220;2023-03-23T10:46:25;4.13;;;3.72;;
48873;SDS011;66155;46.204;5.220;2023-03-23T10:51:37;5.25;;;3.42;;
48873;SDS011;66155;46.204;5.220;2023-03-23T10:56:44;3.78;;;3.33;;
48873;SDS011;66155;46.204;5.220;2023-03-23T11:01:45;4.05;;;3.50;;
48873;SDS011;66155;46.204;5.220;2023-03-23T11:06:51;4.75;;;4.28;;
48873;SDS011;66155;46.204;5.220;2023-03-23T11:11:57;4.85;;;3.13;;
48873;SDS011;66155;46.204;5.220;2023-03-23T11:16:59;9.25;;;4.28;;
48873;SDS011;66155;46.204;5.220;2023-03-23T11:27:07;6.53;;;4.38;;
48873;SDS011;66155;46.204;5.220;2023-03-23T11:32:10;32.10;;;18.25;;
48873;SDS011;66155;46.204;5.220;2023-03-23T11:47:35;10.48;;;6.40;;
48873;SDS011;66155;46.204;5.220;2023-03-23T11:57:43;8.23;;;5.15;;
48873;SDS011;66155;46.204;5.220;2023-03-23T12:18:55;8.35;;;5.45;;
48873;SDS011;66155;46.204;5.220;2023-03-23T12:29:25;6.30;;;4.35;;
48873;SDS011;66155;46.204;5.220;2023-03-23T12:34:54;7.78;;;5.00;;
48873;SDS011;66155;46.204;5.220;2023-03-23T12:50:32;4.57;;;4.10;;
48873;SDS011;66155;46.204;5.220;2023-03-23T13:01:16;6.45;;;4.60;;
48873;SDS011;66155;46.204;5.220;2023-03-23T13:06:26;4.78;;;3.65;;
48873;SDS011;66155;46.204;5.220;2023-03-23T13:11:35;6.65;;;4.35;;
48873;SDS011;66155;46.204;5.220;2023-03-23T13:21:59;5.22;;;3.70;;
48873;SDS011;66155;46.204;5.220;2023-03-23T13:27:08;4.30;;;3.90;;
48873;SDS011;66155;46.204;5.220;2023-03-23T13:32:12;8.00;;;4.00;;
48873;SDS011;66155;46.204;5.220;2023-03-23T13:37:23;6.43;;;3.60;;
48873;SDS011;66155;46.204;5.220;2023-03-23T13:42:26;5.05;;;3.75;;
48873;SDS011;66155;46.204;5.220;2023-03-23T13:47:39;4.93;;;3.60;;
48873;SDS011;66155;46.204;5.220;2023-03-23T14:13:28;6.15;;;4.63;;
48873;SDS011;66155;46.204;5.220;2023-03-23T14:18:41;6.00;;;4.70;;
48873;SDS011;66155;46.204;5.220;2023-03-23T14:23:47;6.40;;;4.35;;
48873;SDS011;66155;46.204;5.220;2023-03-23T14:28:50;6.25;;;4.70;;
48873;SDS011;66155;46.204;5.220;2023-03-23T14:33:52;5.85;;;4.03;;
48873;SDS011;66155;46.204;5.220;2023-03-23T14:39:02;6.18;;;4.45;;
48873;SDS011;66155;46.204;5.220;2023-03-23T14:44:07;8.00;;;4.68;;
48873;SDS011;66155;46.204;5.220;2023-03-23T14:49:16;6.22;;;4.53;;
48873;SDS011;66155;46.204;5.220;2023-03-23T14:54:25;7.22;;;5.20;;
48873;SDS011;66155;46.204;5.220;2023-03-23T14:59:27;6.85;;;4.72;;
48873;SDS011;66155;46.204;5.220;2023-03-23T15:04:27;8.07;;;5.43;;
48873;SDS011;66155;46.204;5.220;2023-03-23T15:09:28;7.90;;;5.60;;
48873;SDS011;66155;46.204;5.220;2023-03-23T15:14:32;5.50;;;4.22;;
48873;SDS011;66155;46.204;5.220;2023-03-23T15:19:38;7.90;;;5.20;;
48873;SDS011;66155;46.204;5.220;2023-03-23T15:24:41;7.38;;;4.85;;
48873;SDS011;66155;46.204;5.220;2023-03-23T15:29:49;5.85;;;5.28;;
48873;SDS011;66155;46.204;5.220;2023-03-23T15:34:54;12.88;;;5.18;;
48873;SDS011;66155;46.204;5.220;2023-03-23T15:39:56;6.97;;;4.88;;
48873;SDS011;66155;46.204;5.220;2023-03-23T16:00:30;8.02;;;6.15;;
48873;SDS011;66155;46.204;5.220;2023-03-23T16:05:31;8.68;;;6.07;;
48873;SDS011;66155;46.204;5.220;2023-03-23T16:10:32;10.32;;;6.20;;
48873;SDS011;66155;46.204;5.220;2023-03-23T16:15:33;12.90;;;5.88;;
48873;SDS011;66155;46.204;5.220;2023-03-23T16:20:34;37.92;;;17.52;;
48873;SDS011;66155;46.204;5.220;2023-03-23T16:25:35;14.40;;;7.80;;
48873;SDS011;66155;46.204;5.220;2023-03-23T16:30:35;10.43;;;7.30;;
48873;SDS011;66155;46.204;5.220;2023-03-23T16:35:38;10.60;;;6.30;;
48873;SDS011;66155;46.204;5.220;2023-03-23T16:40:38;10.68;;;7.60;;
48873;SDS011;66155;46.204;5.220;2023-03-23T16:45:40;10.45;;;6.53;;
48873;SDS011;66155;46.204;5.220;2023-03-23T16:50:42;12.60;;;6.45;;
48873;SDS011;66155;46.204;5.220;2023-03-23T16:55:43;10.02;;;6.80;;
48873;SDS011;66155;46.204;5.220;2023-03-23T17:00:48;10.93;;;6.57;;
48873;SDS011;66155;46.204;5.220;2023-03-23T17:05:50;11.27;;;6.88;;
48873;SDS011;66155;46.204;5.220;2023-03-23T17:10:52;7.90;;;6.03;;
48873;SDS011;66155;46.204;5.220;2023-03-23T17:15:53;9.63;;;7.97;;
48873;SDS011;66155;46.204;5.220;2023-03-23T17:20:55;11.80;;;6.60;;
48873;SDS011;66155;46.204;5.220;2023-03-23T17:25:56;9.10;;;7.22;;
48873;SDS011;66155;46.204;5.220;2023-03-23T17:30:56;11.52;;;6.35;;
48873;SDS011;66155;46.204;5.220;2023-03-23T17:35:58;7.95;;;6.38;;
48873;SDS011;66155;46.204;5.220;2023-03-23T17:40:59;9.73;;;7.05;;
48873;SDS011;66155;46.204;5.220;2023-03-23T17:46:01;9.98;;;5.90;;
48873;SDS011;66155;46.204;5.220;2023-03-23T17:51:01;9.85;;;7.50;;
48873;SDS011;66155;46.204;5.220;2023-03-23T17:56:03;12.13;;;7.30;;
48873;SDS011;66155;46.204;5.220;2023-03-23T18:01:05;11.38;;;7.15;;
48873;SDS011;66155;46.204;5.220;2023-03-23T18:06:06;11.90;;;6.03;;
48873;SDS011;66155;46.204;5.220;2023-03-23T18:11:08;11.63;;;6.85;;
48873;SDS011;66155;46.204;5.220;2023-03-23T18:16:08;13.77;;;7.32;;
48873;SDS011;66155;46.204;5.220;2023-03-23T18:21:09;11.55;;;6.00;;
48873;SDS011;66155;46.204;5.220;2023-03-23T18:26:11;12.20;;;6.72;;
48873;SDS011;66155;46.204;5.220;2023-03-23T18:31:13;9.00;;;6.32;;
48873;SDS011;66155;46.204;5.220;2023-03-23T18:36:17;8.93;;;6.13;;
48873;SDS011;66155;46.204;5.220;2023-03-23T18:41:19;12.82;;;7.43;;
48873;SDS011;66155;46.204;5.220;2023-03-23T18:46:19;12.18;;;6.25;;
48873;SDS011;66155;46.204;5.220;2023-03-23T18:51:20;9.02;;;5.93;;
48873;SDS011;66155;46.204;5.220;2023-03-23T18:56:21;11.50;;;7.43;;
48873;SDS011;66155;46.204;5.220;2023-03-23T19:01:22;9.40;;;6.13;;
48873;SDS011;66155;46.204;5.220;2023-03-23T19:06:23;11.45;;;6.97;;
48873;SDS011;66155;46.204;5.220;2023-03-23T19:11:26;10.35;;;6.70;;
48873;SDS011;66155;46.204;5.220;2023-03-23T19:16:27;11.05;;;7.60;;
48873;SDS011;66155;46.204;5.220;2023-03-23T19:21:29;8.43;;;6.47;;
48873;SDS011;66155;46.204;5.220;2023-03-23T19:26:31;8.88;;;6.63;;
48873;SDS011;66155;46.204;5.220;2023-03-23T19:31:36;7.47;;;6.00;;
48873;SDS011;66155;46.204;5.220;2023-03-23T19:36:37;8.98;;;6.88;;
48873;SDS011;66155;46.204;5.220;2023-03-23T19:41:38;8.68;;;7.68;;
48873;SDS011;66155;46.204;5.220;2023-03-23T19:46:39;7.93;;;6.28;;
48873;SDS011;66155;46.204;5.220;2023-03-23T19:51:39;10.82;;;6.50;;
48873;SDS011;66155;46.204;5.220;2023-03-23T19:56:40;10.18;;;6.65;;
48873;SDS011;66155;46.204;5.220;2023-03-23T20:01:42;7.45;;;6.40;;
48873;SDS011;66155;46.204;5.220;2023-03-23T20:06:43;10.38;;;7.65;;
48873;SDS011;66155;46.204;5.220;2023-03-23T20:11:44;8.82;;;6.75;;
48873;SDS011;66155;46.204;5.220;2023-03-23T20:16:44;10.35;;;6.53;;
48873;SDS011;66155;46.204;5.220;2023-03-23T20:21:45;10.15;;;6.60;;
48873;SDS011;66155;46.204;5.220;2023-03-23T20:26:45;9.00;;;6.50;;
48873;SDS011;66155;46.204;5.220;2023-03-23T20:31:46;10.43;;;6.78;;
48873;SDS011;66155;46.204;5.220;2023-03-23T20:36:46;9.77;;;7.47;;
48873;SDS011;66155;46.204;5.220;2023-03-23T20:41:49;12.45;;;7.88;;
48873;SDS011;66155;46.204;5.220;2023-03-23T20:46:53;8.80;;;6.82;;
48873;SDS011;66155;46.204;5.220;2023-03-23T20:51:55;8.38;;;7.25;;
48873;SDS011;66155;46.204;5.220;2023-03-23T20:56:56;6.68;;;5.43;;
48873;SDS011;66155;46.204;5.220;2023-03-23T21:02:00;8.48;;;6.20;;
48873;SDS011;66155;46.204;5.220;2023-03-23T21:07:00;9.00;;;6.10;;
48873;SDS011;66155;46.204;5.220;2023-03-23T21:12:01;9.55;;;5.82;;
48873;SDS011;66155;46.204;5.220;2023-03-23T21:17:05;12.48;;;7.05;;
48873;SDS011;66155;46.204;5.220;2023-03-23T21:22:06;8.52;;;6.57;;
48873;SDS011;66155;46.204;5.220;2023-03-23T21:27:09;7.88;;;6.53;;
48873;SDS011;66155;46.204;5.220;2023-03-23T21:32:09;9.27;;;6.90;;
48873;SDS011;66155;46.204;5.220;2023-03-23T21:37:10;9.45;;;5.68;;
48873;SDS011;66155;46.204;5.220;2023-03-23T21:42:11;8.60;;;6.10;;
48873;SDS011;66155;46.204;5.220;2023-03-23T21:47:15;9.05;;;6.95;;
48873;SDS011;66155;46.204;5.220;2023-03-23T21:52:17;7.85;;;6.60;;
48873;SDS011;66155;46.204;5.220;2023-03-23T21:57:17;7.30;;;5.65;;
48873;SDS011;66155;46.204;5.220;2023-03-23T22:02:19;7.80;;;6.28;;
48873;SDS011;66155;46.204;5.220;2023-03-23T22:07:19;7.88;;;5.75;;
48873;SDS011;66155;46.204;5.220;2023-03-23T22:12:22;8.40;;;5.75;;
48873;SDS011;66155;46.204;5.220;2023-03-23T22:17:23;7.32;;;6.40;;
48873;SDS011;66155;46.204;5.220;2023-03-23T22:22:24;8.57;;;6.25;;
48873;SDS011;66155;46.204;5.220;2023-03-23T22:27:25;10.77;;;5.50;;
48873;SDS011;66155;46.204;5.220;2023-03-23T22:32:25;7.88;;;5.40;;
48873;SDS011;66155;46.204;5.220;2023-03-23T22:37:26;5.75;;;4.60;;
48873;SDS011;66155;46.204;5.220;2023-03-23T22:42:26;6.82;;;4.22;;
48873;SDS011;66155;46.204;5.220;2023-03-23T22:47:27;9.95;;;4.95;;
48873;SDS011;66155;46.204;5.220;2023-03-23T22:52:28;3.97;;;3.30;;
48873;SDS011;66155;46.204;5.220;2023-03-23T22:57:30;5.00;;;3.83;;
48873;SDS011;66155;46.204;5.220;2023-03-23T23:02:30;6.50;;;4.00;;
48873;SDS011;66155;46.204;5.220;2023-03-23T23:07:31;5.50;;;3.60;;
48873;SDS011;66155;46.204;5.220;2023-03-23T23:12:31;5.45;;;3.92;;
48873;SDS011;66155;46.204;5.220;2023-03-23T23:17:34;7.47;;;3.60;;
48873;SDS011;66155;46.204;5.220;2023-03-23T23:22:40;3.92;;;3.30;;
48873;SDS011;66155;46.204;5.220;2023-03-23T23:27:41;5.78;;;3.03;;
48873;SDS011;66155;46.204;5.220;2023-03-23T23:32:41;4.55;;;3.75;;
48873;SDS011;66155;46.204;5.220;2023-03-23T23:37:43;3.88;;;3.25;;
48873;SDS011;66155;46.204;5.220;2023-03-23T23:42:44;6.70;;;3.25;;
48873;SDS011;66155;46.204;5.220;2023-03-23T23:47:47;7.35;;;3.40;;
48873;SDS011;66155;46.204;5.220;2023-03-23T23:52:48;4.47;;;3.53;;
48873;SDS011;66155;46.204;5.220;2023-03-23T23:57:49;3.45;;;2.90;;
